createdAt,value
2022-12-31T00:00:38.360Z,85.07
2022-12-31T00:03:10.400Z,77.03
2022-12-31T00:05:37.901Z,83.80
2022-12-31T00:08:05.388Z,84.53
2022-12-31T00:10:39.791Z,83.00
2022-12-31T00:13:09.687Z,87.53
2022-12-31T00:15:38.666Z,83.43
2022-12-31T00:18:07.327Z,79.53
2022-12-31T00:20:34.735Z,82.20
2022-12-31T00:23:01.937Z,79.20
2022-12-31T00:25:29.152Z,73.35
2022-12-31T00:27:56.337Z,80.85
2022-12-31T00:30:23.704Z,79.55
2022-12-31T00:32:50.868Z,79.53
2022-12-31T00:35:18.248Z,73.40
2022-12-31T00:37:45.442Z,83.25
2022-12-31T00:40:12.733Z,76.03
2022-12-31T00:42:39.980Z,77.15
2022-12-31T00:45:08.159Z,75.50
2022-12-31T00:47:35.296Z,76.72
2022-12-31T00:50:02.443Z,80.07
2022-12-31T00:52:29.645Z,78.93
2022-12-31T00:54:57.834Z,76.68
2022-12-31T00:57:25.431Z,75.05
2022-12-31T00:59:52.729Z,77.13
2022-12-31T01:02:19.980Z,83.57
2022-12-31T01:04:47.406Z,77.28
2022-12-31T01:07:14.619Z,80.85
2022-12-31T01:09:41.984Z,76.97
2022-12-31T01:12:09.228Z,78.93
2022-12-31T01:14:36.540Z,80.55
2022-12-31T01:17:03.706Z,81.65
2022-12-31T01:19:32.210Z,81.45
2022-12-31T01:21:59.448Z,79.05
2022-12-31T01:24:26.779Z,83.30
2022-12-31T01:26:57.641Z,78.93
2022-12-31T01:29:26.603Z,74.50
2022-12-31T01:31:53.942Z,77.13
2022-12-31T01:34:21.087Z,82.25
2022-12-31T01:36:48.315Z,81.43
2022-12-31T01:39:15.900Z,79.90
2022-12-31T01:41:47.843Z,73.07
2022-12-31T01:44:23.819Z,75.15
2022-12-31T01:46:59.045Z,77.38
2022-12-31T01:49:39.484Z,77.22
2022-12-31T01:52:28.424Z,78.78
2022-12-31T01:55:16.634Z,75.78
2022-12-31T01:57:47.006Z,85.72
2022-12-31T02:00:16.150Z,87.80
2022-12-31T02:02:44.483Z,83.82
2022-12-31T02:06:01.243Z,82.28
2022-12-31T02:08:28.517Z,79.50
2022-12-31T02:10:55.856Z,83.30
2022-12-31T02:13:24.045Z,81.28
2022-12-31T02:16:24.254Z,79.47
2022-12-31T02:19:42.062Z,79.53
2022-12-31T02:22:45.948Z,90.47
2022-12-31T02:26:13.988Z,86.60
2022-12-31T02:32:18.068Z,89.05
2022-12-31T02:34:56.531Z,87.13
2022-12-31T02:37:28.534Z,88.65
2022-12-31T02:39:56.471Z,84.28
2022-12-31T02:42:23.628Z,81.15
2022-12-31T02:44:50.753Z,84.22
2022-12-31T02:48:19.405Z,90.22
2022-12-31T02:51:18.364Z,84.75
2022-12-31T02:54:19.771Z,89.60
2022-12-31T02:57:11.714Z,80.85
2022-12-31T03:00:39.101Z,84.03
2022-12-31T03:03:08.147Z,83.35
2022-12-31T03:05:42.531Z,89.65
2022-12-31T03:08:09.920Z,82.03
2022-12-31T03:10:37.436Z,87.45
2022-12-31T03:13:04.626Z,95.00
2022-12-31T03:15:34.494Z,88.05
2022-12-31T03:18:06.464Z,90.80
2022-12-31T03:21:09.164Z,92.20
2022-12-31T03:23:50.136Z,88.18
2022-12-31T03:26:17.440Z,96.80
2022-12-31T03:28:47.850Z,97.93
2022-12-31T03:31:16.389Z,90.13
2022-12-31T03:33:43.816Z,93.13
2022-12-31T03:36:14.973Z,99.03
2022-12-31T03:38:42.591Z,95.50
2022-12-31T03:41:11.695Z,94.70
2022-12-31T03:43:38.951Z,101.97
2022-12-31T03:46:06.535Z,93.10
2022-12-31T03:48:33.780Z,96.05
2022-12-31T03:51:01.009Z,105.20
2022-12-31T03:53:28.169Z,101.82
2022-12-31T03:55:55.740Z,93.82
2022-12-31T03:58:23.446Z,96.47
2022-12-31T04:00:51.123Z,97.00
2022-12-31T04:03:18.517Z,102.10
2022-12-31T04:05:52.462Z,94.03
2022-12-31T04:08:19.619Z,99.88
2022-12-31T04:10:46.759Z,98.18
2022-12-31T04:13:13.927Z,90.53
2022-12-31T04:15:41.097Z,100.95
2022-12-31T04:18:08.347Z,93.40
2022-12-31T04:20:35.481Z,89.53
2022-12-31T04:23:02.627Z,87.38
2022-12-31T04:25:29.789Z,96.05
2022-12-31T04:27:56.954Z,86.20
2022-12-31T04:30:24.096Z,85.80
2022-12-31T04:32:51.358Z,83.05
2022-12-31T04:35:18.598Z,88.28
2022-12-31T04:37:45.936Z,84.70
2022-12-31T04:40:13.293Z,85.78
2022-12-31T04:42:40.460Z,84.80
2022-12-31T04:45:08.636Z,91.25
2022-12-31T04:47:35.965Z,85.30
2022-12-31T04:50:05.228Z,92.18
2022-12-31T04:52:35.759Z,87.82
2022-12-31T04:55:08.204Z,85.05
2022-12-31T04:57:35.388Z,88.03
2022-12-31T05:00:02.632Z,83.45
2022-12-31T05:02:31.309Z,81.50
2022-12-31T05:04:58.620Z,84.30
2022-12-31T05:07:25.778Z,82.30
2022-12-31T05:09:53.174Z,82.25
2022-12-31T05:12:20.338Z,81.00
2022-12-31T05:14:47.650Z,80.03
2022-12-31T05:17:15.002Z,83.10
2022-12-31T05:19:42.140Z,86.32
2022-12-31T05:22:27.932Z,86.68
2022-12-31T05:24:56.250Z,85.90
2022-12-31T05:27:24.633Z,84.18
2022-12-31T05:29:51.878Z,87.70
2022-12-31T05:32:19.241Z,85.60
2022-12-31T05:34:47.451Z,84.47
2022-12-31T05:37:14.598Z,90.82
2022-12-31T05:39:41.796Z,90.20
2022-12-31T05:42:08.977Z,90.88
2022-12-31T05:44:36.121Z,86.20
2022-12-31T05:47:03.305Z,94.30
2022-12-31T05:49:30.443Z,86.35
2022-12-31T05:51:57.591Z,93.22
2022-12-31T05:54:24.782Z,88.70
2022-12-31T05:56:54.640Z,86.30
2022-12-31T05:59:22.277Z,88.13
2022-12-31T06:01:49.774Z,88.82
2022-12-31T06:04:17.273Z,81.30
2022-12-31T06:06:44.461Z,80.40
2022-12-31T06:09:11.767Z,80.28
2022-12-31T06:11:39.032Z,82.72
2022-12-31T06:14:06.308Z,81.25
2022-12-31T06:16:33.553Z,79.20
2022-12-31T06:19:01.596Z,80.13
2022-12-31T06:21:30.246Z,85.63
2022-12-31T06:23:58.833Z,74.78
2022-12-31T06:26:27.545Z,77.78
2022-12-31T06:28:54.780Z,69.30
2022-12-31T06:31:22.095Z,76.80
2022-12-31T06:33:49.245Z,70.45
2022-12-31T06:36:16.878Z,76.00
2022-12-31T06:38:44.831Z,77.72
2022-12-31T06:41:15.720Z,74.55
2022-12-31T06:43:43.635Z,73.97
2022-12-31T06:46:15.802Z,72.88
2022-12-31T06:48:44.882Z,74.70
2022-12-31T06:51:20.370Z,71.38
2022-12-31T06:53:50.742Z,69.63
2022-12-31T06:56:33.928Z,74.80
2022-12-31T06:59:03.753Z,72.38
2022-12-31T07:01:45.789Z,66.55
2022-12-31T07:04:33.907Z,67.50
2022-12-31T07:07:32.503Z,64.65
2022-12-31T07:10:48.375Z,71.88
2022-12-31T07:13:56.690Z,69.07
2022-12-31T07:17:27.033Z,70.53
2022-12-31T07:20:17.288Z,67.63
2022-12-31T07:22:46.524Z,67.10
2022-12-31T07:25:16.741Z,64.80
2022-12-31T07:28:35.068Z,71.18
2022-12-31T07:34:25.509Z,61.78
2022-12-31T07:37:39.949Z,65.18
2022-12-31T07:40:48.422Z,72.18
2022-12-31T07:44:00.822Z,66.30
2022-12-31T07:46:57.730Z,68.65
2022-12-31T07:49:28.642Z,65.07
2022-12-31T07:51:57.017Z,66.93
2022-12-31T07:54:24.325Z,63.53
2022-12-31T07:56:52.037Z,63.83
2022-12-31T08:00:08.291Z,60.22
2022-12-31T08:03:04.190Z,62.88
2022-12-31T08:06:32.225Z,62.72
2022-12-31T08:09:28.560Z,82.00
2022-12-31T08:12:00.276Z,76.20
2022-12-31T08:14:29.082Z,67.88
2022-12-31T08:16:57.235Z,63.22
2022-12-31T08:19:32.419Z,67.28
2022-12-31T08:22:36.023Z,66.50
2022-12-31T08:25:21.106Z,65.63
2022-12-31T08:28:49.409Z,63.47
2022-12-31T08:31:27.846Z,65.93
2022-12-31T08:34:30.203Z,66.72
2022-12-31T08:37:06.635Z,67.43
2022-12-31T08:40:16.105Z,64.65
2022-12-31T08:43:04.207Z,65.03
2022-12-31T08:45:52.745Z,58.45
2022-12-31T08:48:43.188Z,61.92
2022-12-31T08:51:23.243Z,62.45
2022-12-31T08:53:51.251Z,63.55
2022-12-31T08:56:32.116Z,61.72
2022-12-31T08:59:50.519Z,64.53
2022-12-31T09:03:09.558Z,59.80
2022-12-31T09:06:30.843Z,66.10
2022-12-31T09:09:38.241Z,61.13
2022-12-31T09:12:44.894Z,63.65
2022-12-31T09:15:42.476Z,65.53
2022-12-31T09:18:12.800Z,59.58
2022-12-31T09:20:43.468Z,56.53
2022-12-31T09:23:13.538Z,69.13
2022-12-31T09:26:11.070Z,62.13
2022-12-31T09:29:14.808Z,63.08
2022-12-31T09:32:15.768Z,57.22
2022-12-31T09:35:15.846Z,63.90
2022-12-31T09:37:56.728Z,60.45
2022-12-31T09:40:54.253Z,62.58
2022-12-31T09:44:04.597Z,58.75
2022-12-31T09:47:14.617Z,62.20
2022-12-31T09:50:08.988Z,55.97
2022-12-31T09:53:17.260Z,52.25
2022-12-31T09:56:17.787Z,52.45
2022-12-31T09:59:11.102Z,52.83
2022-12-31T10:01:51.255Z,53.78
2022-12-31T10:05:12.626Z,55.25
2022-12-31T10:08:13.355Z,62.53
2022-12-31T10:11:03.451Z,55.50
2022-12-31T10:14:27.391Z,52.55
2022-12-31T10:17:19.161Z,55.10
2022-12-31T10:20:09.483Z,55.95
2022-12-31T10:23:53.004Z,56.15
2022-12-31T10:26:53.501Z,54.47
2022-12-31T10:29:48.956Z,56.67
2022-12-31T10:32:43.359Z,54.65
2022-12-31T10:35:56.005Z,52.75
2022-12-31T10:39:03.040Z,57.70
2022-12-31T10:42:22.124Z,53.55
2022-12-31T10:45:29.460Z,51.08
2022-12-31T10:48:51.268Z,55.22
2022-12-31T10:51:53.900Z,49.15
2022-12-31T10:55:03.574Z,50.72
2022-12-31T10:58:38.373Z,50.00
2022-12-31T11:01:34.650Z,58.13
2022-12-31T11:05:12.761Z,57.47
2022-12-31T11:08:26.273Z,49.72
2022-12-31T11:11:49.777Z,57.75
2022-12-31T11:14:44.737Z,46.30
2022-12-31T11:18:06.428Z,49.15
2022-12-31T11:20:55.996Z,45.70
2022-12-31T11:24:20.848Z,44.90
2022-12-31T11:27:29.504Z,50.30
2022-12-31T11:30:35.888Z,47.25
2022-12-31T11:33:15.169Z,47.22
2022-12-31T11:36:45.200Z,49.97
2022-12-31T11:39:49.947Z,52.00
2022-12-31T11:42:31.094Z,53.17
2022-12-31T11:45:10.992Z,51.65
2022-12-31T11:48:28.453Z,46.97
2022-12-31T11:51:31.353Z,51.58
2022-12-31T11:54:39.072Z,51.78
2022-12-31T11:57:29.861Z,55.53
2022-12-31T12:00:20.306Z,54.75
2022-12-31T12:03:02.086Z,51.05
2022-12-31T12:05:30.631Z,58.70
2022-12-31T12:07:58.990Z,64.63
2022-12-31T12:10:47.495Z,50.25
2022-12-31T12:13:17.672Z,53.22
2022-12-31T12:15:54.783Z,50.63
2022-12-31T12:18:41.940Z,48.78
2022-12-31T12:21:19.519Z,55.33
2022-12-31T12:24:16.472Z,92.55
2022-12-31T12:26:45.538Z,49.63
2022-12-31T12:29:30.199Z,51.65
2022-12-31T12:32:15.340Z,45.85
2022-12-31T12:34:49.143Z,50.60
2022-12-31T12:37:35.283Z,48.78
2022-12-31T12:40:29.806Z,52.35
2022-12-31T12:42:59.240Z,53.10
2022-12-31T12:45:52.120Z,49.30
2022-12-31T12:48:34.757Z,49.92
2022-12-31T12:51:11.220Z,47.23
2022-12-31T12:54:44.548Z,52.38
2022-12-31T12:57:43.216Z,54.47
2022-12-31T13:00:25.036Z,54.75
2022-12-31T13:04:32.477Z,52.55
2022-12-31T13:07:19.426Z,50.28
2022-12-31T13:10:48.836Z,55.22
2022-12-31T13:13:34.947Z,49.50
2022-12-31T13:16:40.139Z,54.22
2022-12-31T13:19:41.981Z,49.30
2022-12-31T13:22:37.977Z,48.15
2022-12-31T13:26:05.343Z,55.03
2022-12-31T13:28:35.608Z,52.80
2022-12-31T13:31:15.516Z,50.10
2022-12-31T13:33:58.530Z,52.30
2022-12-31T13:36:28.688Z,50.65
2022-12-31T13:39:01.196Z,56.42
2022-12-31T13:42:21.921Z,55.88
2022-12-31T13:45:02.989Z,56.53
2022-12-31T13:47:44.509Z,57.05
2022-12-31T13:50:41.008Z,57.38
2022-12-31T13:53:32.376Z,57.72
2022-12-31T13:56:06.513Z,60.42
2022-12-31T13:59:22.793Z,57.65
2022-12-31T14:02:32.861Z,54.53
2022-12-31T14:05:17.095Z,53.10
2022-12-31T14:08:06.426Z,53.33
2022-12-31T14:11:50.827Z,54.85
2022-12-31T14:14:51.255Z,59.10
2022-12-31T14:17:48.048Z,53.97
2022-12-31T14:20:49.894Z,97.38
2022-12-31T14:24:19.892Z,58.55
2022-12-31T14:26:55.366Z,50.80
2022-12-31T14:29:46.696Z,54.00
2022-12-31T14:32:35.548Z,54.13
2022-12-31T14:35:37.600Z,56.47
2022-12-31T14:39:17.296Z,54.88
2022-12-31T14:42:18.681Z,65.10
2022-12-31T14:45:30.858Z,75.50
2022-12-31T14:48:22.873Z,66.43
2022-12-31T14:50:50.315Z,63.35
2022-12-31T14:53:27.107Z,63.80
2022-12-31T14:56:24.607Z,53.63
2022-12-31T14:59:00.402Z,53.08
2022-12-31T15:01:27.976Z,56.70
2022-12-31T15:03:57.998Z,54.85
2022-12-31T15:07:04.776Z,55.28
2022-12-31T15:09:59.714Z,52.83
2022-12-31T15:13:10.161Z,51.53
2022-12-31T15:16:24.374Z,66.35
2022-12-31T15:19:17.248Z,65.72
2022-12-31T15:22:35.417Z,62.25
2022-12-31T15:25:04.541Z,47.50
2022-12-31T15:27:38.496Z,51.83
2022-12-31T15:30:07.569Z,51.20
2022-12-31T15:32:43.116Z,57.03
2022-12-31T15:35:22.367Z,60.55
2022-12-31T15:38:39.080Z,67.50
2022-12-31T15:41:36.790Z,50.70
2022-12-31T15:44:51.796Z,62.05
2022-12-31T15:47:37.316Z,59.22
2022-12-31T15:50:19.285Z,59.55
2022-12-31T15:53:03.189Z,58.40
2022-12-31T15:55:44.211Z,53.90
2022-12-31T15:58:18.333Z,54.78
2022-12-31T16:01:13.910Z,53.63
2022-12-31T16:04:05.556Z,62.43
2022-12-31T16:06:39.263Z,56.15
2022-12-31T16:09:19.505Z,52.47
2022-12-31T16:11:46.903Z,58.45
2022-12-31T16:14:37.684Z,57.85
2022-12-31T16:17:06.765Z,70.28
2022-12-31T16:19:46.118Z,64.88
2022-12-31T16:22:45.925Z,58.42
2022-12-31T16:25:36.299Z,60.58
2022-12-31T16:28:04.279Z,69.05
2022-12-31T16:30:35.882Z,54.92
2022-12-31T16:33:09.986Z,63.92
2022-12-31T16:35:37.543Z,59.33
2022-12-31T16:38:19.243Z,57.42
2022-12-31T16:41:16.759Z,62.38
2022-12-31T16:43:46.699Z,68.47
2022-12-31T16:46:27.122Z,60.88
2022-12-31T16:49:20.430Z,65.75
2022-12-31T16:51:49.547Z,68.00
2022-12-31T16:54:50.675Z,80.80
2022-12-31T16:57:24.195Z,75.93
2022-12-31T17:00:01.082Z,68.38
2022-12-31T17:02:44.130Z,77.30
2022-12-31T17:05:29.947Z,78.68
2022-12-31T17:07:57.986Z,63.33
2022-12-31T17:10:36.478Z,66.38
2022-12-31T17:13:30.095Z,69.00
2022-12-31T17:15:59.119Z,62.38
2022-12-31T17:18:36.265Z,68.97
2022-12-31T17:21:09.845Z,76.05
2022-12-31T17:23:39.919Z,76.22
2022-12-31T17:26:23.107Z,66.03
2022-12-31T17:28:53.850Z,65.80
2022-12-31T17:31:37.170Z,76.32
2022-12-31T17:34:15.139Z,82.03
2022-12-31T17:37:06.594Z,78.15
2022-12-31T17:39:49.059Z,110.50
2022-12-31T17:42:36.718Z,130.05
2022-12-31T17:45:21.718Z,73.65
2022-12-31T17:47:53.595Z,91.38
2022-12-31T17:50:24.939Z,78.40
2022-12-31T17:53:12.014Z,85.00
2022-12-31T17:55:39.919Z,68.50
2022-12-31T17:58:07.671Z,68.10
2022-12-31T18:00:37.325Z,66.88
2022-12-31T18:03:04.630Z,71.45
2022-12-31T18:05:31.866Z,71.45
2022-12-31T18:07:59.109Z,75.43
2022-12-31T18:10:29.343Z,75.03
2022-12-31T18:12:58.825Z,70.70
2022-12-31T18:15:26.108Z,72.70
2022-12-31T18:17:53.342Z,72.47
2022-12-31T18:20:20.747Z,72.60
2022-12-31T18:22:48.163Z,71.15
2022-12-31T18:25:24.328Z,78.63
2022-12-31T18:27:52.703Z,75.43
2022-12-31T18:30:19.891Z,73.30
2022-12-31T18:32:47.419Z,83.93
2022-12-31T18:35:49.060Z,81.15
2022-12-31T18:38:18.583Z,78.70
2022-12-31T18:40:58.523Z,81.80
2022-12-31T18:43:25.959Z,83.93
2022-12-31T18:45:53.492Z,86.80
2022-12-31T18:48:20.867Z,81.32
2022-12-31T18:50:48.764Z,83.65
2022-12-31T18:53:22.227Z,84.50
2022-12-31T18:55:57.705Z,87.50
2022-12-31T18:58:24.980Z,84.18
2022-12-31T19:00:52.702Z,83.50
2022-12-31T19:03:27.321Z,92.03
2022-12-31T19:05:54.765Z,94.20
2022-12-31T19:08:23.653Z,88.30
2022-12-31T19:10:53.440Z,86.05
2022-12-31T19:13:20.927Z,94.28
2022-12-31T19:15:53.275Z,87.80
2022-12-31T19:18:20.526Z,100.18
2022-12-31T19:20:47.809Z,95.55
2022-12-31T19:23:19.055Z,99.97
2022-12-31T19:25:48.894Z,96.55
2022-12-31T19:28:26.554Z,95.35
2022-12-31T19:30:54.532Z,100.25
2022-12-31T19:33:22.338Z,109.25
2022-12-31T19:35:49.680Z,109.80
2022-12-31T19:38:26.684Z,105.03
2022-12-31T19:40:55.171Z,108.38
2022-12-31T19:43:23.851Z,98.10
2022-12-31T19:45:51.853Z,103.78
2022-12-31T19:48:30.509Z,110.63
2022-12-31T19:50:59.978Z,108.30
2022-12-31T19:53:28.521Z,103.95
2022-12-31T19:55:55.697Z,107.90
2022-12-31T19:58:26.518Z,107.90
2022-12-31T20:01:02.735Z,108.70
2022-12-31T20:03:33.077Z,106.50
2022-12-31T20:06:09.342Z,108.10
2022-12-31T20:08:38.838Z,104.88
2022-12-31T20:11:18.619Z,110.07
2022-12-31T20:13:48.885Z,111.88
2022-12-31T20:16:20.590Z,115.90
2022-12-31T20:18:48.451Z,123.40
2022-12-31T20:21:25.097Z,117.85
2022-12-31T20:23:54.083Z,108.43
2022-12-31T20:26:24.604Z,105.57
2022-12-31T20:28:53.354Z,117.38
2022-12-31T20:31:25.360Z,104.95
2022-12-31T20:33:54.845Z,107.35
2022-12-31T20:36:23.057Z,108.97
2022-12-31T20:38:50.586Z,105.18
2022-12-31T20:41:22.056Z,116.90
2022-12-31T20:43:50.176Z,116.28
2022-12-31T20:46:24.722Z,117.00
2022-12-31T20:48:56.126Z,125.40
2022-12-31T20:51:24.231Z,120.38
2022-12-31T20:53:59.647Z,115.90
2022-12-31T20:56:31.587Z,126.03
2022-12-31T20:58:59.519Z,126.55
2022-12-31T21:01:36.373Z,126.57
2022-12-31T21:04:15.093Z,118.03
2022-12-31T21:06:42.527Z,124.75
2022-12-31T21:09:10.152Z,131.10
2022-12-31T21:11:56.075Z,136.25
2022-12-31T21:14:23.328Z,139.15
2022-12-31T21:16:50.772Z,138.15
2022-12-31T21:19:17.961Z,140.50
2022-12-31T21:21:45.199Z,140.63
2022-12-31T21:24:12.451Z,119.93
2022-12-31T21:26:39.648Z,143.88
2022-12-31T21:29:06.889Z,135.90
2022-12-31T21:31:34.162Z,137.38
2022-12-31T21:34:01.479Z,133.60
2022-12-31T21:36:28.791Z,138.80
2022-12-31T21:38:56.061Z,130.18
2022-12-31T21:41:41.842Z,123.68
2022-12-31T21:44:09.065Z,126.22
2022-12-31T21:46:36.379Z,136.75
2022-12-31T21:49:04.049Z,136.77
2022-12-31T21:51:31.230Z,140.93
2022-12-31T21:53:58.827Z,138.77
2022-12-31T21:56:26.062Z,147.02
2022-12-31T21:59:21.580Z,141.10
2022-12-31T22:02:07.380Z,172.60
2022-12-31T22:07:21.798Z,150.70
2022-12-31T22:09:48.939Z,142.95
2022-12-31T22:12:16.100Z,143.73
2022-12-31T22:15:15.726Z,146.48
2022-12-31T22:17:30.679Z,140.82
2022-12-31T22:20:25.934Z,145.68
2022-12-31T22:22:45.079Z,140.18
2022-12-31T22:25:12.321Z,134.02
2022-12-31T22:27:39.595Z,170.57
2022-12-31T22:30:08.459Z,168.15
2022-12-31T22:32:35.727Z,168.15
2022-12-31T22:35:03.089Z,154.27
2022-12-31T22:40:17.719Z,162.05
2022-12-31T22:42:44.976Z,189.93
2022-12-31T22:45:12.298Z,168.90
2022-12-31T22:47:39.622Z,165.35
2022-12-31T22:50:07.658Z,164.70
2022-12-31T22:52:34.933Z,156.75
2022-12-31T22:55:02.363Z,167.25
2022-12-31T22:57:29.640Z,169.52
2022-12-31T22:59:56.786Z,161.23
2022-12-31T23:02:23.960Z,162.07
2022-12-31T23:04:51.240Z,161.50
2022-12-31T23:07:18.469Z,277.02
2022-12-31T23:10:04.237Z,310.55
2022-12-31T23:12:31.507Z,278.08
2022-12-31T23:15:17.170Z,390.50
2022-12-31T23:18:03.079Z,441.88
2022-12-31T23:20:48.943Z,400.08
2022-12-31T23:23:17.057Z,344.33
2022-12-31T23:25:50.135Z,440.45
2022-12-31T23:28:23.271Z,506.95
2022-12-31T23:30:51.729Z,443.30
2022-12-31T23:33:26.235Z,472.80
2022-12-31T23:36:06.303Z,436.60
2022-12-31T23:38:33.676Z,425.63
2022-12-31T23:41:00.869Z,423.83
2022-12-31T23:43:28.049Z,408.70
2022-12-31T23:45:55.332Z,378.20
2022-12-31T23:48:22.574Z,423.45
2022-12-31T23:50:53.875Z,429.67
2022-12-31T23:53:25.038Z,403.95
2022-12-31T23:55:53.120Z,401.95
2022-12-31T23:58:21.131Z,413.30
